Погода Крымна 2 недели

Пензенская область, Россия

27 мая-09 июня
  • 27мая
    Сегодня
    +7°
    +21°
    Ясно и безоблачно
    ВремяПогодаТемператураВлажностьДавлениеВетер, м/сВероятность осадков
    00:00Практически безоблачно+13°C72 %754 мм3.8 м/с2 %
    03:00Ясно и безоблачно+10°C66 %755 мм3.3 м/с2 %
    06:00Ясно и безоблачно+12°C60 %757 мм2.8 м/с2 %
    09:00Ясно и безоблачно+18°C37 %757 мм3.7 м/с2 %
    12:00Ясно и безоблачно+20°C28 %758 мм3.6 м/с2 %
    15:00Ясно и безоблачно+21°C27 %757 мм3.0 м/с2 %
    18:00Ясно и безоблачно+20°C32 %756 мм2.3 м/с2 %
    21:00Ясно и безоблачно+13°C51 %756 мм2.7 м/с2 %
  • 28мая
    Вторник
    +9°
    +24°
    Ясно и безоблачно
    ВремяПогодаТемператураВлажностьДавлениеВетер, м/сВероятность осадков
    00:00Ясно и безоблачно+8°C62 %756 мм2.0 м/с2 %
    03:00Ясно и безоблачно+8°C65 %756 мм2.1 м/с2 %
    06:00Ясно и безоблачно+11°C64 %757 мм2.4 м/с2 %
    09:00Ясно и безоблачно+19°C38 %756 мм2.0 м/с2 %
    12:00Ясно и безоблачно+22°C27 %756 мм2.0 м/с2 %
    15:00Ясно и безоблачно+24°C25 %754 мм1.8 м/с2 %
    18:00Ясно и безоблачно+23°C30 %753 мм1.5 м/с2 %
    21:00Ясно и безоблачно+16°C55 %753 мм1.8 м/с2 %
  • 29мая
    Среда
    +10°
    +27°
    Ясно и безоблачно
    ВремяПогодаТемператураВлажностьДавлениеВетер, м/сВероятность осадков
    00:00Ясно и безоблачно+12°C61 %752 мм2.3 м/с2 %
    03:00Ясно и безоблачно+10°C62 %752 мм2.0 м/с2 %
    06:00Ясно и безоблачно+13°C58 %751 мм1.6 м/с2 %
    09:00Ясно и безоблачно+22°C34 %752 мм1.8 м/с2 %
    12:00Ясно и безоблачно+25°C28 %751 мм1.5 м/с2 %
    15:00Ясно и безоблачно+26°C28 %750 мм1.9 м/с2 %
    18:00Ясно и безоблачно+26°C32 %749 мм1.6 м/с2 %
    21:00Ясно и безоблачно+18°C51 %749 мм2.0 м/с2 %
  • 30мая
    Четверг
    +13°
    +27°
    Ясно и безоблачно
    ВремяПогодаТемператураВлажностьДавлениеВетер, м/сВероятность осадков
    00:00Ясно и безоблачно+14°C57 %748 мм1.9 м/с2 %
    03:00Ясно и безоблачно+12°C63 %748 мм2.3 м/с2 %
    06:00Практически безоблачно+14°C60 %748 мм1.4 м/с2 %
    09:00Ясно и безоблачно+24°C30 %748 мм1.1 м/с2 %
    12:00Ясно и безоблачно+26°C25 %748 мм2.1 м/с2 %
    15:00Ясно и безоблачно+27°C24 %747 мм2.2 м/с2 %
    18:00Ясно и безоблачно+26°C25 %747 мм2.2 м/с2 %
    21:00Ясно и безоблачно+18°C53 %747 мм1.7 м/с2 %
Мы используем cookies
Соглашаюсь